sensor_id;sensor_type;location;lat;lon;timestamp;pressure;altitude;pressure_sealevel;temperature;humidity
29417;BME280;28421;51.030;4.006;2023-02-03T00:00:04;102698.25;;;9.14;80.15
29417;BME280;28421;51.030;4.006;2023-02-03T00:02:36;102725.91;;;9.39;79.74
29417;BME280;28421;51.030;4.006;2023-02-03T00:05:02;102698.31;;;9.26;79.91
29417;BME280;28421;51.030;4.006;2023-02-03T00:07:27;102733.22;;;9.37;80.01
29417;BME280;28421;51.030;4.006;2023-02-03T00:09:54;102702.69;;;9.27;79.88
29417;BME280;28421;51.030;4.006;2023-02-03T00:12:21;102748.63;;;9.46;80.29
29417;BME280;28421;51.030;4.006;2023-02-03T00:14:46;102740.56;;;9.57;79.88
29417;BME280;28421;51.030;4.006;2023-02-03T00:17:12;102738.50;;;9.61;79.89
29417;BME280;28421;51.030;4.006;2023-02-03T00:19:39;102744.63;;;9.63;79.79
29417;BME280;28421;51.030;4.006;2023-02-03T00:22:04;102725.31;;;9.46;79.91
29417;BME280;28421;51.030;4.006;2023-02-03T00:24:30;102742.06;;;9.50;79.59
29417;BME280;28421;51.030;4.006;2023-02-03T00:26:55;102734.94;;;9.49;79.50
29417;BME280;28421;51.030;4.006;2023-02-03T00:29:21;102725.56;;;9.55;79.28
29417;BME280;28421;51.030;4.006;2023-02-03T00:31:52;102725.50;;;9.32;79.62
29417;BME280;28421;51.030;4.006;2023-02-03T05:35:43;102759.38;;;9.46;73.90
29417;BME280;28421;51.030;4.006;2023-02-03T05:38:08;102727.84;;;9.37;73.69
29417;BME280;28421;51.030;4.006;2023-02-03T05:40:34;102801.78;;;9.76;73.23
29417;BME280;28421;51.030;4.006;2023-02-03T05:43:18;102762.31;;;9.54;72.99
29417;BME280;28421;51.030;4.006;2023-02-03T05:45:43;102764.38;;;9.62;73.07
29417;BME280;28421;51.030;4.006;2023-02-03T05:48:09;102810.75;;;9.88;72.97
29417;BME280;28421;51.030;4.006;2023-02-03T05:50:35;102783.13;;;9.75;72.63
29417;BME280;28421;51.030;4.006;2023-02-03T05:53:07;102790.91;;;9.66;73.09
29417;BME280;28421;51.030;4.006;2023-02-03T05:55:33;102814.63;;;9.84;72.44
29417;BME280;28421;51.030;4.006;2023-02-03T05:57:59;102796.03;;;9.69;72.47
29417;BME280;28421;51.030;4.006;2023-02-03T06:00:26;102785.81;;;9.75;72.50
29417;BME280;28421;51.030;4.006;2023-02-03T06:02:55;102776.97;;;9.50;72.47
29417;BME280;28421;51.030;4.006;2023-02-03T06:05:21;102783.34;;;9.71;72.54
29417;BME280;28421;51.030;4.006;2023-02-03T06:07:48;102818.00;;;9.63;72.73
29417;BME280;28421;51.030;4.006;2023-02-03T06:10:14;102796.13;;;9.57;73.17
29417;BME280;28421;51.030;4.006;2023-02-03T06:12:39;102766.19;;;9.39;72.50
29417;BME280;28421;51.030;4.006;2023-02-03T06:15:05;102800.09;;;9.75;72.60
29417;BME280;28421;51.030;4.006;2023-02-03T06:17:31;102787.34;;;9.55;72.75
29417;BME280;28421;51.030;4.006;2023-02-03T06:19:56;102788.34;;;9.65;72.27
29417;BME280;28421;51.030;4.006;2023-02-03T06:22:22;102784.03;;;9.51;72.75
29417;BME280;28421;51.030;4.006;2023-02-03T06:24:48;102821.19;;;9.68;72.87
29417;BME280;28421;51.030;4.006;2023-02-03T06:27:14;102794.06;;;9.60;72.79
29417;BME280;28421;51.030;4.006;2023-02-03T06:29:40;102786.72;;;9.51;72.82
29417;BME280;28421;51.030;4.006;2023-02-03T06:32:06;102794.28;;;9.46;72.83
29417;BME280;28421;51.030;4.006;2023-02-03T06:34:31;102763.88;;;9.10;73.42
29417;BME280;28421;51.030;4.006;2023-02-03T06:36:57;102785.81;;;9.39;73.57
29417;BME280;28421;51.030;4.006;2023-02-03T06:39:22;102776.91;;;9.39;73.38
29417;BME280;28421;51.030;4.006;2023-02-03T06:41:48;102774.69;;;9.33;73.30
29417;BME280;28421;51.030;4.006;2023-02-03T06:44:15;102814.78;;;9.47;73.44
29417;BME280;28421;51.030;4.006;2023-02-03T06:46:41;102816.53;;;9.59;73.90
29417;BME280;28421;51.030;4.006;2023-02-03T06:49:06;102819.78;;;9.52;73.68
29417;BME280;28421;51.030;4.006;2023-02-03T06:51:31;102787.66;;;9.39;73.10
29417;BME280;28421;51.030;4.006;2023-02-03T06:53:57;102800.63;;;9.56;73.30
29417;BME280;28421;51.030;4.006;2023-02-03T06:56:23;102788.47;;;9.63;73.25
29417;BME280;28421;51.030;4.006;2023-02-03T06:58:48;102823.28;;;9.76;73.32
29417;BME280;28421;51.030;4.006;2023-02-03T07:01:14;102806.59;;;9.49;73.78
29417;BME280;28421;51.030;4.006;2023-02-03T07:03:39;102801.06;;;9.39;74.02
29417;BME280;28421;51.030;4.006;2023-02-03T07:06:05;102813.94;;;9.58;73.79
29417;BME280;28421;51.030;4.006;2023-02-03T07:08:30;102838.72;;;9.61;74.09
29417;BME280;28421;51.030;4.006;2023-02-03T07:10:56;102826.28;;;9.60;73.75
29417;BME280;28421;51.030;4.006;2023-02-03T07:13:21;102788.91;;;9.46;73.94
29417;BME280;28421;51.030;4.006;2023-02-03T07:15:46;102813.56;;;9.51;74.02
29417;BME280;28421;51.030;4.006;2023-02-03T07:18:12;102831.94;;;9.68;73.89
29417;BME280;28421;51.030;4.006;2023-02-03T07:20:37;102811.44;;;9.67;74.00
29417;BME280;28421;51.030;4.006;2023-02-03T07:23:03;102785.69;;;9.41;74.18
29417;BME280;28421;51.030;4.006;2023-02-03T07:25:29;102782.69;;;9.45;74.38
29417;BME280;28421;51.030;4.006;2023-02-03T07:27:55;102759.81;;;9.40;74.12
29417;BME280;28421;51.030;4.006;2023-02-03T07:30:21;102727.81;;;9.26;74.48
29417;BME280;28421;51.030;4.006;2023-02-03T07:32:48;102808.13;;;9.64;74.14
29417;BME280;28421;51.030;4.006;2023-02-03T07:35:14;102820.06;;;9.60;74.48
29417;BME280;28421;51.030;4.006;2023-02-03T07:37:40;102833.34;;;9.50;74.74
29417;BME280;28421;51.030;4.006;2023-02-03T07:40:07;102811.06;;;9.37;74.62
29417;BME280;28421;51.030;4.006;2023-02-03T07:42:33;102802.91;;;9.38;75.14
29417;BME280;28421;51.030;4.006;2023-02-03T07:44:58;102801.94;;;9.39;74.59
29417;BME280;28421;51.030;4.006;2023-02-03T07:47:24;102809.97;;;9.39;74.46
29417;BME280;28421;51.030;4.006;2023-02-03T07:49:49;102827.22;;;9.48;74.51
29417;BME280;28421;51.030;4.006;2023-02-03T07:52:14;102826.78;;;9.54;74.39
29417;BME280;28421;51.030;4.006;2023-02-03T07:54:40;102822.00;;;9.58;74.06
29417;BME280;28421;51.030;4.006;2023-02-03T07:57:05;102825.78;;;9.55;74.23
29417;BME280;28421;51.030;4.006;2023-02-03T07:59:30;102800.00;;;9.41;73.94
29417;BME280;28421;51.030;4.006;2023-02-03T08:01:56;102850.41;;;9.84;74.31
29417;BME280;28421;51.030;4.006;2023-02-03T08:04:22;102844.69;;;9.54;74.20
29417;BME280;28421;51.030;4.006;2023-02-03T08:06:48;102837.09;;;9.48;73.69
29417;BME280;28421;51.030;4.006;2023-02-03T08:09:14;102876.38;;;9.73;73.64
29417;BME280;28421;51.030;4.006;2023-02-03T08:11:39;102864.50;;;9.64;73.68
29417;BME280;28421;51.030;4.006;2023-02-03T08:14:05;102900.97;;;9.90;73.63
29417;BME280;28421;51.030;4.006;2023-02-03T08:16:30;102839.66;;;9.49;73.44
29417;BME280;28421;51.030;4.006;2023-02-03T08:18:56;102874.47;;;9.75;73.46
29417;BME280;28421;51.030;4.006;2023-02-03T08:21:22;102864.56;;;9.75;73.64
29417;BME280;28421;51.030;4.006;2023-02-03T08:23:48;102856.81;;;9.59;73.35
29417;BME280;28421;51.030;4.006;2023-02-03T08:26:13;102882.97;;;9.68;73.68
29417;BME280;28421;51.030;4.006;2023-02-03T08:28:39;102861.97;;;9.62;73.54
29417;BME280;28421;51.030;4.006;2023-02-03T08:31:11;102874.69;;;9.83;73.52
29417;BME280;28421;51.030;4.006;2023-02-03T08:33:37;102877.78;;;9.89;73.28
29417;BME280;28421;51.030;4.006;2023-02-03T08:36:03;102873.34;;;9.77;73.55
29417;BME280;28421;51.030;4.006;2023-02-03T08:38:30;102856.50;;;9.75;73.34
29417;BME280;28421;51.030;4.006;2023-02-03T08:40:55;102872.97;;;9.70;73.71
29417;BME280;28421;51.030;4.006;2023-02-03T08:43:21;102857.72;;;9.82;73.54
29417;BME280;28421;51.030;4.006;2023-02-03T08:45:46;102900.94;;;10.14;72.78
29417;BME280;28421;51.030;4.006;2023-02-03T08:48:11;102915.84;;;10.18;72.89
29417;BME280;28421;51.030;4.006;2023-02-03T08:50:40;102903.63;;;10.14;73.18
29417;BME280;28421;51.030;4.006;2023-02-03T08:53:07;102875.94;;;9.90;73.11
29417;BME280;28421;51.030;4.006;2023-02-03T08:55:33;102886.50;;;10.04;72.98
29417;BME280;28421;51.030;4.006;2023-02-03T08:57:59;102918.63;;;10.06;73.71
29417;BME280;28421;51.030;4.006;2023-02-03T09:00:24;102897.00;;;9.96;73.62
29417;BME280;28421;51.030;4.006;2023-02-03T09:02:50;102909.03;;;9.90;73.22
29417;BME280;28421;51.030;4.006;2023-02-03T09:05:16;102866.81;;;9.92;73.26
29417;BME280;28421;51.030;4.006;2023-02-03T09:07:43;102918.25;;;10.34;73.01
29417;BME280;28421;51.030;4.006;2023-02-03T09:10:09;102896.75;;;10.10;73.32
29417;BME280;28421;51.030;4.006;2023-02-03T09:12:34;102893.09;;;10.00;73.23
29417;BME280;28421;51.030;4.006;2023-02-03T09:15:00;102916.44;;;10.00;73.27
29417;BME280;28421;51.030;4.006;2023-02-03T09:17:25;102960.81;;;10.16;73.50
29417;BME280;28421;51.030;4.006;2023-02-03T09:19:52;102917.69;;;9.83;73.84
29417;BME280;28421;51.030;4.006;2023-02-03T09:22:17;102936.38;;;10.08;73.38
29417;BME280;28421;51.030;4.006;2023-02-03T09:24:43;102935.94;;;10.26;73.06
29417;BME280;28421;51.030;4.006;2023-02-03T09:27:08;102941.94;;;10.40;72.43
29417;BME280;28421;51.030;4.006;2023-02-03T09:29:34;102947.47;;;10.50;72.81
29417;BME280;28421;51.030;4.006;2023-02-03T09:31:59;102931.94;;;10.42;72.60
29417;BME280;28421;51.030;4.006;2023-02-03T09:34:31;102956.28;;;10.52;72.80
29417;BME280;28421;51.030;4.006;2023-02-03T09:36:56;102932.44;;;10.59;71.91
29417;BME280;28421;51.030;4.006;2023-02-03T09:39:22;102987.94;;;10.49;72.69
29417;BME280;28421;51.030;4.006;2023-02-03T09:41:59;102929.03;;;10.10;73.02
29417;BME280;28421;51.030;4.006;2023-02-03T09:47:27;102927.59;;;10.17;73.28
29417;BME280;28421;51.030;4.006;2023-02-03T09:50:02;102957.03;;;10.54;72.89
29417;BME280;28421;51.030;4.006;2023-02-03T09:52:29;102951.63;;;10.54;72.82
29417;BME280;28421;51.030;4.006;2023-02-03T09:58:07;102909.31;;;10.56;72.36
29417;BME280;28421;51.030;4.006;2023-02-03T10:00:46;102888.88;;;10.31;72.29
29417;BME280;28421;51.030;4.006;2023-02-03T10:03:24;102957.25;;;10.51;73.00
29417;BME280;28421;51.030;4.006;2023-02-03T10:19:20;102961.66;;;11.19;71.04
29417;BME280;28421;51.030;4.006;2023-02-03T10:21:51;102914.97;;;10.87;71.44
29417;BME280;28421;51.030;4.006;2023-02-03T10:27:16;102941.63;;;10.90;72.13
29417;BME280;28421;51.030;4.006;2023-02-03T10:29:42;102987.94;;;11.50;71.07
29417;BME280;28421;51.030;4.006;2023-02-03T10:32:09;102950.31;;;11.16;71.01
29417;BME280;28421;51.030;4.006;2023-02-03T10:34:35;103003.53;;;11.01;71.45
29417;BME280;28421;51.030;4.006;2023-02-03T10:37:25;102919.31;;;11.10;70.53
29417;BME280;28421;51.030;4.006;2023-02-03T10:39:53;102991.88;;;11.23;71.35
29417;BME280;28421;51.030;4.006;2023-02-03T10:42:20;102996.97;;;11.49;71.26
29417;BME280;28421;51.030;4.006;2023-02-03T10:44:57;102975.38;;;11.16;70.90
29417;BME280;28421;51.030;4.006;2023-02-03T10:47:31;102973.91;;;11.01;71.43
29417;BME280;28421;51.030;4.006;2023-02-03T10:50:06;103018.81;;;11.23;71.56
29417;BME280;28421;51.030;4.006;2023-02-03T10:52:35;102990.78;;;11.14;71.55
29417;BME280;28421;51.030;4.006;2023-02-03T10:57:52;102962.53;;;10.75;71.75
29417;BME280;28421;51.030;4.006;2023-02-03T11:00:28;103023.59;;;11.08;71.89
29417;BME280;28421;51.030;4.006;2023-02-03T11:03:05;103014.03;;;10.93;72.50
29417;BME280;28421;51.030;4.006;2023-02-03T11:05:31;102993.34;;;10.71;72.67
29417;BME280;28421;51.030;4.006;2023-02-03T11:07:56;103007.69;;;10.83;72.80
29417;BME280;28421;51.030;4.006;2023-02-03T11:10:36;103023.00;;;11.16;72.46
29417;BME280;28421;51.030;4.006;2023-02-03T11:13:21;103023.97;;;10.92;73.12
29417;BME280;28421;51.030;4.006;2023-02-03T11:21:19;102997.03;;;10.81;72.95
29417;BME280;28421;51.030;4.006;2023-02-03T11:26:20;103012.44;;;10.79;73.52
29417;BME280;28421;51.030;4.006;2023-02-03T11:28:49;102990.56;;;10.84;72.96
29417;BME280;28421;51.030;4.006;2023-02-03T11:31:18;102985.53;;;10.68;73.45
29417;BME280;28421;51.030;4.006;2023-02-03T11:33:47;102999.34;;;10.86;73.24
29417;BME280;28421;51.030;4.006;2023-02-03T11:36:12;102970.97;;;10.82;73.27
29417;BME280;28421;51.030;4.006;2023-02-03T11:38:38;102991.03;;;11.11;72.58
29417;BME280;28421;51.030;4.006;2023-02-03T11:41:14;103000.09;;;11.33;72.49
29417;BME280;28421;51.030;4.006;2023-02-03T11:43:40;102968.41;;;11.03;72.22
29417;BME280;28421;51.030;4.006;2023-02-03T11:46:06;102929.38;;;10.86;72.66
29417;BME280;28421;51.030;4.006;2023-02-03T11:59:24;103000.59;;;11.04;73.01
29417;BME280;28421;51.030;4.006;2023-02-03T12:12:50;103012.28;;;11.48;71.38
29417;BME280;28421;51.030;4.006;2023-02-03T12:18:07;102974.13;;;11.32;70.49
29417;BME280;28421;51.030;4.006;2023-02-03T12:20:46;102983.88;;;11.55;70.77
29417;BME280;28421;51.030;4.006;2023-02-03T12:23:39;103015.72;;;11.61;70.66
29417;BME280;28421;51.030;4.006;2023-02-03T12:26:22;102950.09;;;11.40;70.58
29417;BME280;28421;51.030;4.006;2023-02-03T12:29:17;102989.78;;;11.38;70.73
29417;BME280;28421;51.030;4.006;2023-02-03T12:34:52;102999.56;;;11.50;70.37
29417;BME280;28421;51.030;4.006;2023-02-03T12:37:53;102971.31;;;11.33;70.77
29417;BME280;28421;51.030;4.006;2023-02-03T12:40:22;103027.66;;;11.80;70.12
29417;BME280;28421;51.030;4.006;2023-02-03T12:42:55;102995.13;;;11.60;70.17
29417;BME280;28421;51.030;4.006;2023-02-03T12:45:29;102996.88;;;11.28;71.07
29417;BME280;28421;51.030;4.006;2023-02-03T12:48:12;102995.41;;;11.46;70.67
29417;BME280;28421;51.030;4.006;2023-02-03T12:50:45;102970.69;;;11.41;70.85
29417;BME280;28421;51.030;4.006;2023-02-03T12:53:16;103012.97;;;11.73;70.56
29417;BME280;28421;51.030;4.006;2023-02-03T12:58:49;103006.97;;;11.69;70.42
29417;BME280;28421;51.030;4.006;2023-02-03T13:01:22;103011.53;;;11.68;70.60
29417;BME280;28421;51.030;4.006;2023-02-03T13:17:43;102950.09;;;11.51;70.40
29417;BME280;28421;51.030;4.006;2023-02-03T13:20:26;102971.63;;;11.62;70.18
29417;BME280;28421;51.030;4.006;2023-02-03T13:22:55;102998.25;;;11.77;69.96
29417;BME280;28421;51.030;4.006;2023-02-03T13:34:15;103003.03;;;11.73;70.28
29417;BME280;28421;51.030;4.006;2023-02-03T13:40:03;103010.75;;;11.78;70.09
29417;BME280;28421;51.030;4.006;2023-02-03T13:42:37;102992.53;;;11.70;69.86
29417;BME280;28421;51.030;4.006;2023-02-03T13:45:19;102979.47;;;11.65;69.98
29417;BME280;28421;51.030;4.006;2023-02-03T13:47:48;102969.59;;;11.76;69.85
29417;BME280;28421;51.030;4.006;2023-02-03T13:50:20;102957.91;;;11.65;69.94
29417;BME280;28421;51.030;4.006;2023-02-03T13:52:54;102953.38;;;11.66;69.77
29417;BME280;28421;51.030;4.006;2023-02-03T13:57:54;102984.41;;;11.81;69.85
29417;BME280;28421;51.030;4.006;2023-02-03T14:03:17;102982.94;;;11.45;70.58
29417;BME280;28421;51.030;4.006;2023-02-03T14:05:45;102940.69;;;11.34;70.28
29417;BME280;28421;51.030;4.006;2023-02-03T14:13:52;102988.78;;;11.61;70.47
29417;BME280;28421;51.030;4.006;2023-02-03T14:16:23;103010.66;;;11.68;70.70
29417;BME280;28421;51.030;4.006;2023-02-03T14:18:49;102992.63;;;11.80;70.06
29417;BME280;28421;51.030;4.006;2023-02-03T14:21:21;103007.13;;;11.67;70.24
29417;BME280;28421;51.030;4.006;2023-02-03T14:23:51;102994.75;;;11.65;70.10
29417;BME280;28421;51.030;4.006;2023-02-03T14:26:30;102998.09;;;11.57;70.21
29417;BME280;28421;51.030;4.006;2023-02-03T14:28:57;103030.13;;;11.72;70.05
29417;BME280;28421;51.030;4.006;2023-02-03T14:31:24;103004.81;;;11.52;70.27
29417;BME280;28421;51.030;4.006;2023-02-03T14:38:53;103024.91;;;11.48;71.01
29417;BME280;28421;51.030;4.006;2023-02-03T14:49:53;103040.94;;;11.60;71.15
29417;BME280;28421;51.030;4.006;2023-02-03T14:52:32;103058.69;;;11.52;70.97
29417;BME280;28421;51.030;4.006;2023-02-03T14:57:52;102999.25;;;11.21;71.26
29417;BME280;28421;51.030;4.006;2023-02-03T15:07:56;103043.06;;;11.45;71.47
29417;BME280;28421;51.030;4.006;2023-02-03T15:10:28;103014.03;;;11.38;71.12
29417;BME280;28421;51.030;4.006;2023-02-03T15:12:56;102984.94;;;11.20;71.02
29417;BME280;28421;51.030;4.006;2023-02-03T15:17:56;103032.75;;;11.39;71.87
29417;BME280;28421;51.030;4.006;2023-02-03T15:20:34;103036.03;;;11.65;71.31
29417;BME280;28421;51.030;4.006;2023-02-03T15:23:01;102993.09;;;11.30;71.34
29417;BME280;28421;51.030;4.006;2023-02-03T15:25:29;103024.94;;;11.36;71.53
29417;BME280;28421;51.030;4.006;2023-02-03T15:28:10;103036.53;;;11.48;71.31
29417;BME280;28421;51.030;4.006;2023-02-03T15:30:36;103024.06;;;11.36;71.20
29417;BME280;28421;51.030;4.006;2023-02-03T15:33:08;103050.28;;;11.45;71.42
29417;BME280;28421;51.030;4.006;2023-02-03T15:35:38;103029.97;;;11.41;71.41
29417;BME280;28421;51.030;4.006;2023-02-03T15:38:11;103022.34;;;11.35;71.33
29417;BME280;28421;51.030;4.006;2023-02-03T15:40:43;103021.03;;;11.40;71.37
29417;BME280;28421;51.030;4.006;2023-02-03T15:46:03;103064.47;;;11.36;72.27
29417;BME280;28421;51.030;4.006;2023-02-03T15:48:37;103046.34;;;11.27;71.82
29417;BME280;28421;51.030;4.006;2023-02-03T15:56:37;103061.53;;;11.28;71.93
29417;BME280;28421;51.030;4.006;2023-02-03T15:59:21;103052.38;;;11.08;72.23
29417;BME280;28421;51.030;4.006;2023-02-03T16:01:48;103053.34;;;11.18;71.95
29417;BME280;28421;51.030;4.006;2023-02-03T16:04:14;103049.53;;;10.98;72.39
29417;BME280;28421;51.030;4.006;2023-02-03T16:06:45;103059.94;;;11.25;72.16
29417;BME280;28421;51.030;4.006;2023-02-03T16:12:16;103080.38;;;11.05;73.03
29417;BME280;28421;51.030;4.006;2023-02-03T16:14:42;103028.59;;;11.02;72.18
29417;BME280;28421;51.030;4.006;2023-02-03T16:17:27;103071.91;;;10.99;73.32
29417;BME280;28421;51.030;4.006;2023-02-03T16:25:21;103094.59;;;11.07;73.45
29417;BME280;28421;51.030;4.006;2023-02-03T16:28:03;103087.69;;;10.92;73.54
29417;BME280;28421;51.030;4.006;2023-02-03T16:33:44;103077.53;;;10.84;73.91
29417;BME280;28421;51.030;4.006;2023-02-03T16:36:28;103109.00;;;10.95;73.92
29417;BME280;28421;51.030;4.006;2023-02-03T16:39:12;103097.22;;;10.85;74.03
29417;BME280;28421;51.030;4.006;2023-02-03T16:41:58;103089.72;;;10.66;74.42
29417;BME280;28421;51.030;4.006;2023-02-03T16:44:42;103098.88;;;10.63;74.46
29417;BME280;28421;51.030;4.006;2023-02-03T16:47:28;103091.63;;;10.53;74.55
29417;BME280;28421;51.030;4.006;2023-02-03T16:50:18;103124.84;;;10.76;74.52
29417;BME280;28421;51.030;4.006;2023-02-03T16:53:02;103090.38;;;10.45;74.70
29417;BME280;28421;51.030;4.006;2023-02-03T16:55:28;103093.53;;;10.39;75.16
29417;BME280;28421;51.030;4.006;2023-02-03T16:57:53;103118.34;;;10.43;75.46
29417;BME280;28421;51.030;4.006;2023-02-03T17:00:19;103104.97;;;10.30;75.68
29417;BME280;28421;51.030;4.006;2023-02-03T17:02:50;103101.22;;;10.33;75.85
29417;BME280;28421;51.030;4.006;2023-02-03T17:05:16;103135.47;;;10.42;75.92
29417;BME280;28421;51.030;4.006;2023-02-03T17:07:42;103113.44;;;10.24;75.66
29417;BME280;28421;51.030;4.006;2023-02-03T17:10:08;103158.97;;;10.51;76.29
29417;BME280;28421;51.030;4.006;2023-02-03T17:12:33;103126.38;;;10.32;75.93
29417;BME280;28421;51.030;4.006;2023-02-03T17:14:59;103109.41;;;10.18;76.62
29417;BME280;28421;51.030;4.006;2023-02-03T17:17:25;103152.19;;;10.34;76.18
29417;BME280;28421;51.030;4.006;2023-02-03T17:19:51;103132.53;;;10.21;76.53
29417;BME280;28421;51.030;4.006;2023-02-03T17:22:16;103145.44;;;10.29;76.50
29417;BME280;28421;51.030;4.006;2023-02-03T17:24:42;103100.69;;;9.91;76.84
29417;BME280;28421;51.030;4.006;2023-02-03T17:27:07;103149.84;;;10.30;76.27
29417;BME280;28421;51.030;4.006;2023-02-03T17:29:33;103125.03;;;10.13;76.58
29417;BME280;28421;51.030;4.006;2023-02-03T17:31:58;103125.75;;;10.15;76.65
29417;BME280;28421;51.030;4.006;2023-02-03T17:34:23;103120.03;;;10.20;76.81
29417;BME280;28421;51.030;4.006;2023-02-03T17:36:49;103125.59;;;10.06;76.71
29417;BME280;28421;51.030;4.006;2023-02-03T17:39:14;103092.06;;;9.99;76.71
29417;BME280;28421;51.030;4.006;2023-02-03T17:41:40;103161.91;;;10.48;76.43
29417;BME280;28421;51.030;4.006;2023-02-03T17:44:05;103150.56;;;10.32;76.75
29417;BME280;28421;51.030;4.006;2023-02-03T17:46:31;103109.69;;;10.03;76.85
29417;BME280;28421;51.030;4.006;2023-02-03T17:48:57;103142.56;;;10.43;75.94
29417;BME280;28421;51.030;4.006;2023-02-03T17:51:23;103157.72;;;10.44;76.17
29417;BME280;28421;51.030;4.006;2023-02-03T17:53:50;103172.44;;;10.51;76.14
29417;BME280;28421;51.030;4.006;2023-02-03T17:56:20;103141.84;;;10.41;76.30
29417;BME280;28421;51.030;4.006;2023-02-03T17:58:46;103136.81;;;10.24;76.23
29417;BME280;28421;51.030;4.006;2023-02-03T18:01:12;103197.06;;;10.58;76.30
29417;BME280;28421;51.030;4.006;2023-02-03T18:03:46;103163.09;;;10.44;76.00
29417;BME280;28421;51.030;4.006;2023-02-03T18:06:13;103171.63;;;10.38;76.56
29417;BME280;28421;51.030;4.006;2023-02-03T18:08:41;103172.91;;;10.45;76.28
29417;BME280;28421;51.030;4.006;2023-02-03T18:11:19;103193.44;;;10.46;76.33
29417;BME280;28421;51.030;4.006;2023-02-03T18:13:48;103172.50;;;10.38;76.32
29417;BME280;28421;51.030;4.006;2023-02-03T18:16:17;103166.47;;;10.35;76.26
29417;BME280;28421;51.030;4.006;2023-02-03T18:18:44;103210.16;;;10.62;76.13
29417;BME280;28421;51.030;4.006;2023-02-03T18:21:12;103193.31;;;10.48;75.99
29417;BME280;28421;51.030;4.006;2023-02-03T18:23:38;103188.63;;;10.62;75.41
29417;BME280;28421;51.030;4.006;2023-02-03T18:26:05;103190.00;;;10.44;76.02
29417;BME280;28421;51.030;4.006;2023-02-03T18:28:31;103180.06;;;10.33;76.03
29417;BME280;28421;51.030;4.006;2023-02-03T18:31:02;103226.94;;;10.66;75.79
29417;BME280;28421;51.030;4.006;2023-02-03T18:33:29;103197.13;;;10.45;76.06
29417;BME280;28421;51.030;4.006;2023-02-03T18:35:58;103178.84;;;10.37;76.07
29417;BME280;28421;51.030;4.006;2023-02-03T18:38:29;103203.63;;;10.54;75.93
29417;BME280;28421;51.030;4.006;2023-02-03T18:41:05;103218.38;;;10.72;75.51
29417;BME280;28421;51.030;4.006;2023-02-03T18:43:31;103197.78;;;10.36;76.25
29417;BME280;28421;51.030;4.006;2023-02-03T18:45:56;103253.66;;;10.80;75.71
29417;BME280;28421;51.030;4.006;2023-02-03T18:48:29;103201.31;;;10.24;76.62
29417;BME280;28421;51.030;4.006;2023-02-03T18:50:55;103240.78;;;10.73;75.87
29417;BME280;28421;51.030;4.006;2023-02-03T18:53:20;103232.16;;;10.43;76.50
29417;BME280;28421;51.030;4.006;2023-02-03T18:55:46;103208.53;;;10.36;76.71
29417;BME280;28421;51.030;4.006;2023-02-03T18:58:12;103234.47;;;10.37;77.33
29417;BME280;28421;51.030;4.006;2023-02-03T19:00:38;103224.22;;;10.42;77.28
29417;BME280;28421;51.030;4.006;2023-02-03T19:03:04;103210.47;;;10.34;77.15
29417;BME280;28421;51.030;4.006;2023-02-03T19:05:29;103238.91;;;10.49;77.08
29417;BME280;28421;51.030;4.006;2023-02-03T19:07:55;103248.47;;;10.53;77.29
29417;BME280;28421;51.030;4.006;2023-02-03T19:10:21;103237.13;;;10.50;77.35
29417;BME280;28421;51.030;4.006;2023-02-03T19:13:06;103255.44;;;10.68;77.05
29417;BME280;28421;51.030;4.006;2023-02-03T19:15:32;103258.28;;;10.54;77.67
29417;BME280;28421;51.030;4.006;2023-02-03T19:17:57;103240.38;;;10.42;77.91
29417;BME280;28421;51.030;4.006;2023-02-03T19:20:25;103242.16;;;10.54;77.70
29417;BME280;28421;51.030;4.006;2023-02-03T19:23:11;103209.97;;;10.29;78.11
29417;BME280;28421;51.030;4.006;2023-02-03T19:25:37;103251.06;;;10.55;78.21
29417;BME280;28421;51.030;4.006;2023-02-03T19:28:06;103251.34;;;10.39;78.49
29417;BME280;28421;51.030;4.006;2023-02-03T19:30:33;103260.16;;;10.41;79.01
29417;BME280;28421;51.030;4.006;2023-02-03T19:32:59;103265.56;;;10.41;78.74
29417;BME280;28421;51.030;4.006;2023-02-03T19:35:33;103298.22;;;10.48;79.57
29417;BME280;28421;51.030;4.006;2023-02-03T19:38:01;103271.03;;;10.39;79.08
29417;BME280;28421;51.030;4.006;2023-02-03T19:40:29;103272.03;;;10.26;79.56
29417;BME280;28421;51.030;4.006;2023-02-03T19:43:00;103285.00;;;10.32;79.91
29417;BME280;28421;51.030;4.006;2023-02-03T19:45:26;103269.66;;;10.34;79.77
29417;BME280;28421;51.030;4.006;2023-02-03T19:47:54;103275.56;;;10.26;79.69
29417;BME280;28421;51.030;4.006;2023-02-03T19:50:19;103294.50;;;10.37;80.42
29417;BME280;28421;51.030;4.006;2023-02-03T19:52:54;103281.59;;;10.30;79.93
29417;BME280;28421;51.030;4.006;2023-02-03T19:55:42;103252.97;;;10.03;80.53
29417;BME280;28421;51.030;4.006;2023-02-03T19:58:11;103264.16;;;10.10;80.58
29417;BME280;28421;51.030;4.006;2023-02-03T20:03:57;103303.97;;;10.30;80.56
29417;BME280;28421;51.030;4.006;2023-02-03T20:06:55;103308.00;;;10.49;80.47
29417;BME280;28421;51.030;4.006;2023-02-03T20:13:21;103294.38;;;10.13;82.92
29417;BME280;28421;51.030;4.006;2023-02-03T20:16:10;103264.84;;;9.88;83.15
29417;BME280;28421;51.030;4.006;2023-02-03T20:18:51;103248.28;;;9.81;83.84
29417;BME280;28421;51.030;4.006;2023-02-03T20:25:30;103240.56;;;9.64;84.37
29417;BME280;28421;51.030;4.006;2023-02-03T20:28:42;103297.63;;;9.93;85.03
29417;BME280;28421;51.030;4.006;2023-02-03T20:31:22;103291.59;;;9.77;85.74
29417;BME280;28421;51.030;4.006;2023-02-03T20:34:10;103291.81;;;9.74;86.32
29417;BME280;28421;51.030;4.006;2023-02-03T20:40:42;103299.97;;;9.59;87.63
29417;BME280;28421;51.030;4.006;2023-02-03T20:58:17;103311.88;;;9.55;90.00
29417;BME280;28421;51.030;4.006;2023-02-03T21:01:36;103248.75;;;9.10;90.34
29417;BME280;28421;51.030;4.006;2023-02-03T21:08:56;103268.97;;;9.28;90.09